Time;durP1;ratioP1;P1;durP2;ratioP2;P2;SDS_P1;SDS_P2;PMS_P1;PMS_P2;Temp;Humidity;BMP_temperature;BMP_pressure;BME280_temperature;BME280_humidity;BME280_pressure;Samples;Min_cycle;Max_cycle;Signal;HPM_P1;HPM_P2
2020/12/04 00:00:30;;;;;;;;;;;1.60;99.90;;;;;;5034346;28;19952;-79
2020/12/04 00:02:56;;;;;;;;;;;1.60;99.90;;;;;;5033802;28;19975;-79
2020/12/04 00:05:22;;;;;;;;;;;1.60;99.90;;;;;;5048613;28;19921;-79
2020/12/04 00:07:47;;;;;;;;;;;1.60;99.90;;;;;;5030614;28;20376;-78
2020/12/04 00:10:13;;;;;;;;;;;1.70;99.90;;;;;;5032098;28;19917;-79
2020/12/04 00:12:40;;;;;;;;;;;1.70;99.90;;;;;;5033020;28;19917;-78
2020/12/04 00:15:06;;;;;;;;;;;1.80;99.90;;;;;;5033895;28;19916;-79
2020/12/04 00:17:32;;;;;;;;;;;1.80;99.90;;;;;;5033079;28;19925;-79
2020/12/04 00:19:58;;;;;;;;;;;1.80;99.90;;;;;;5033908;28;20284;-79
2020/12/04 00:22:24;;;;;;;;;;;1.80;99.90;;;;;;5033145;28;19930;-79
2020/12/04 00:24:49;;;;;;;;;;;1.80;99.90;;;;;;5034070;28;19917;-79
2020/12/04 00:27:15;;;;;;;;;;;1.80;99.90;;;;;;5049443;28;20446;-79
2020/12/04 00:29:41;;;;;;;;;;;1.70;99.90;;;;;;5049567;28;19956;-80
2020/12/04 00:32:07;;;;;;;;;;;1.70;99.90;;;;;;5049607;28;20004;-79
2020/12/04 00:34:33;;;;;;;;;;;1.70;99.90;;;;;;5049530;28;19917;-79
2020/12/04 00:36:59;;;;;;;;;;;1.60;99.90;;;;;;5049352;28;19921;-79
2020/12/04 00:39:24;;;;;;;;;;;1.60;99.90;;;;;;5049554;28;19944;-79
2020/12/04 00:41:50;;;;;;;;;;;1.60;99.90;;;;;;5032942;28;19917;-79
2020/12/04 00:44:16;;;;;;;;;;;1.60;99.90;;;;;;5049159;28;19921;-79
2020/12/04 00:46:41;;;;;;;;;;;1.70;99.90;;;;;;5029595;28;20295;-79
2020/12/04 00:49:07;;;;;;;;;;;1.70;99.90;;;;;;5030329;28;19921;-79
2020/12/04 00:51:34;;;;;;;;;;;1.80;99.90;;;;;;5049555;28;19917;-79
2020/12/04 00:53:59;;;;;;;;;;;1.80;99.90;;;;;;5033904;28;19929;-79
2020/12/04 00:56:29;;;;;;;;;;;1.80;99.90;;;;;;5049505;28;20365;-79
2020/12/04 00:58:55;;;;;;;;;;;1.80;99.90;;;;;;5048560;28;19971;-79
2020/12/04 01:01:20;;;;;;;;;;;1.80;99.90;;;;;;5046359;28;19917;-79
2020/12/04 01:03:46;;;;;;;;;;;1.70;99.90;;;;;;5031206;28;19928;-79
2020/12/04 01:06:12;;;;;;;;;;;1.70;99.90;;;;;;5045022;28;19949;-79
2020/12/04 01:08:39;;;;;;;;;;;1.70;99.90;;;;;;5046048;28;19925;-79
2020/12/04 01:11:05;;;;;;;;;;;1.80;99.90;;;;;;5048943;28;20289;-79
2020/12/04 01:13:31;;;;;;;;;;;1.80;99.90;;;;;;5042478;28;19917;-79
2020/12/04 01:15:56;;;;;;;;;;;1.80;99.90;;;;;;5051307;28;19917;-79
2020/12/04 01:18:22;;;;;;;;;;;1.80;99.90;;;;;;5052687;28;19939;-79
2020/12/04 01:20:48;;;;;;;;;;;1.80;99.90;;;;;;5052595;28;20365;-79
2020/12/04 01:23:13;;;;;;;;;;;1.90;99.90;;;;;;5052223;28;19967;-79
2020/12/04 01:25:40;;;;;;;;;;;1.90;99.90;;;;;;5052536;28;19925;-79
2020/12/04 01:28:05;;;;;;;;;;;1.90;99.90;;;;;;5052572;28;20431;-79
2020/12/04 01:30:31;;;;;;;;;;;1.90;99.90;;;;;;5052436;28;19917;-79
2020/12/04 01:32:56;;;;;;;;;;;1.90;99.90;;;;;;5052543;28;19920;-79
2020/12/04 01:35:22;;;;;;;;;;;1.90;99.90;;;;;;5052160;28;19917;-79
2020/12/04 01:37:48;;;;;;;;;;;1.90;99.90;;;;;;5036917;28;19921;-79
2020/12/04 01:40:14;;;;;;;;;;;1.90;99.90;;;;;;5052224;28;20012;-79
2020/12/04 01:42:40;;;;;;;;;;;2.00;99.90;;;;;;5035957;28;20365;-79
2020/12/04 01:45:06;;;;;;;;;;;2.00;99.90;;;;;;5052653;28;19956;-79
2020/12/04 01:47:32;;;;;;;;;;;2.00;99.90;;;;;;5030933;28;19952;-80
2020/12/04 01:49:57;;;;;;;;;;;2.00;99.90;;;;;;5026009;28;19924;-79
2020/12/04 01:52:25;;;;;;;;;;;2.00;99.90;;;;;;5052401;28;19921;-78
2020/12/04 01:54:51;;;;;;;;;;;1.90;99.90;;;;;;5051913;28;19924;-79
2020/12/04 01:57:17;;;;;;;;;;;1.90;99.90;;;;;;5051903;28;19916;-79
2020/12/04 01:59:44;;;;;;;;;;;1.90;99.90;;;;;;5051856;28;19924;-80
2020/12/04 02:02:16;;;;;;;;;;;1.90;99.90;;;;;;5051740;28;19921;-79
2020/12/04 02:04:42;;;;;;;;;;;1.90;99.90;;;;;;5052224;28;19917;-80
2020/12/04 02:07:13;;;;;;;;;;;1.90;99.90;;;;;;5053216;28;19940;-79
2020/12/04 02:09:41;;;;;;;;;;;2.00;99.90;;;;;;5052723;28;19923;-79
2020/12/04 02:12:15;;;;;;;;;;;2.00;99.90;;;;;;5051759;28;19917;-79
2020/12/04 02:14:41;;;;;;;;;;;2.10;99.90;;;;;;5037225;28;19917;-79
2020/12/04 02:17:07;;;;;;;;;;;2.20;99.90;;;;;;5052667;28;19924;-79
2020/12/04 02:19:34;;;;;;;;;;;2.20;99.90;;;;;;5038286;28;19928;-79
2020/12/04 02:22:01;;;;;;;;;;;2.20;99.90;;;;;;5035978;28;19917;-79
2020/12/04 02:24:26;;;;;;;;;;;2.20;99.90;;;;;;5050256;28;19965;-79
2020/12/04 02:26:53;;;;;;;;;;;2.20;99.90;;;;;;5050685;28;19917;-79
2020/12/04 02:29:19;;;;;;;;;;;2.30;99.90;;;;;;5034424;28;19979;-80
2020/12/04 02:31:45;;;;;;;;;;;2.30;99.90;;;;;;5034679;28;19925;-79
2020/12/04 02:34:10;;;;;;;;;;;2.30;99.90;;;;;;5051059;28;19917;-79
2020/12/04 02:36:36;;;;;;;;;;;2.20;99.90;;;;;;5043534;28;20475;-80
2020/12/04 02:39:03;;;;;;;;;;;2.20;99.90;;;;;;5051027;28;20365;-79
2020/12/04 02:41:29;;;;;;;;;;;2.20;99.90;;;;;;5034533;28;19925;-79
2020/12/04 02:43:54;;;;;;;;;;;2.10;99.90;;;;;;5034499;28;19975;-79
2020/12/04 02:46:20;;;;;;;;;;;2.10;99.90;;;;;;5034319;28;19917;-79
2020/12/04 02:48:46;;;;;;;;;;;2.00;99.90;;;;;;5034155;28;19983;-79
2020/12/04 02:51:14;;;;;;;;;;;2.00;99.90;;;;;;5034401;28;20299;-79
2020/12/04 02:53:40;;;;;;;;;;;2.00;99.90;;;;;;5035350;28;20447;-79
2020/12/04 02:56:06;;;;;;;;;;;1.90;99.90;;;;;;5035412;28;19917;-79
2020/12/04 02:58:32;;;;;;;;;;;1.90;99.90;;;;;;5050910;28;20389;-79
2020/12/04 03:00:57;;;;;;;;;;;1.90;99.90;;;;;;5035227;28;19924;-79
2020/12/04 03:03:23;;;;;;;;;;;1.90;99.90;;;;;;5050262;28;19974;-79
2020/12/04 03:05:49;;;;;;;;;;;1.90;99.90;;;;;;5033993;28;19921;-79
2020/12/04 03:08:14;;;;;;;;;;;1.90;99.90;;;;;;5050675;28;20016;-79
2020/12/04 03:10:40;;;;;;;;;;;1.90;99.90;;;;;;5019999;28;20344;-80
2020/12/04 03:13:07;;;;;;;;;;;1.90;99.90;;;;;;5035238;28;19917;-79
2020/12/04 03:15:32;;;;;;;;;;;1.90;99.90;;;;;;5050512;28;19921;-79
2020/12/04 03:17:58;;;;;;;;;;;1.90;99.90;;;;;;5033656;28;19917;-80
2020/12/04 03:20:24;;;;;;;;;;;1.80;99.90;;;;;;5033868;28;19917;-80
2020/12/04 03:22:49;;;;;;;;;;;1.80;99.90;;;;;;5033768;28;19925;-79
2020/12/04 03:25:15;;;;;;;;;;;1.80;99.90;;;;;;5050411;28;19917;-79
2020/12/04 03:27:41;;;;;;;;;;;1.80;99.90;;;;;;5050425;28;19940;-80
2020/12/04 03:30:07;;;;;;;;;;;1.80;99.90;;;;;;5030260;28;20399;-79
2020/12/04 03:32:33;;;;;;;;;;;1.70;99.90;;;;;;5025173;28;19921;-80
2020/12/04 03:34:59;;;;;;;;;;;1.80;99.90;;;;;;5033459;28;20273;-79
2020/12/04 03:37:26;;;;;;;;;;;1.80;99.90;;;;;;5050185;28;19970;-79
2020/12/04 03:39:51;;;;;;;;;;;1.80;99.90;;;;;;5032536;28;20419;-79
2020/12/04 03:42:17;;;;;;;;;;;1.80;99.90;;;;;;5034845;28;19917;-79
2020/12/04 03:44:42;;;;;;;;;;;1.80;99.90;;;;;;5050026;28;19917;-79
2020/12/04 03:47:09;;;;;;;;;;;1.80;99.90;;;;;;5049833;28;19916;-80
2020/12/04 03:49:35;;;;;;;;;;;1.90;99.90;;;;;;5049897;28;20023;-79
2020/12/04 03:52:00;;;;;;;;;;;1.90;99.90;;;;;;5033777;28;19952;-79
2020/12/04 03:54:26;;;;;;;;;;;2.00;99.90;;;;;;5049867;28;19917;-79
2020/12/04 03:56:52;;;;;;;;;;;1.90;99.90;;;;;;5035573;28;19999;-79
2020/12/04 03:59:17;;;;;;;21.00;12.85;;;2.10;99.90;;;;;;5052016;28;19952;-79
2020/12/04 04:01:43;;;;;;;20.83;12.45;;;2.10;99.90;;;;;;5036566;28;20064;-79
2020/12/04 04:04:10;;;;;;;;;;;2.10;99.90;;;;;;5041563;28;20057;-80
2020/12/04 04:06:35;;;;;;;;;;;2.00;99.90;;;;;;5040785;28;19932;-79
2020/12/04 04:09:01;;;;;;;;;;;1.90;99.90;;;;;;5054053;28;20397;-79
2020/12/04 04:11:27;;;;;;;;;;;1.90;99.90;;;;;;5040373;28;19924;-79
2020/12/04 04:13:53;;;;;;;;;;;1.80;99.90;;;;;;5053747;28;20373;-79
2020/12/04 04:16:18;;;;;;;;;;;1.90;99.90;;;;;;5038479;28;19917;-80
2020/12/04 04:18:50;;;;;;;16.42;10.27;;;1.90;99.90;;;;;;5034494;28;20308;-79
2020/12/04 04:21:16;;;;;;;;;;;2.00;99.90;;;;;;5052219;28;20060;-79
2020/12/04 04:23:42;;;;;;;;;;;2.00;99.90;;;;;;5037358;28;20343;-79
2020/12/04 04:26:07;;;;;;;;;;;1.90;99.90;;;;;;5033230;28;19921;-79
2020/12/04 04:28:33;;;;;;;;;;;2.00;99.90;;;;;;5034842;28;19917;-79
2020/12/04 04:30:59;;;;;;;;;;;2.00;99.90;;;;;;5050540;28;20003;-79
2020/12/04 04:33:25;;;;;;;;;;;2.00;99.90;;;;;;5035781;28;19921;-79
2020/12/04 04:35:51;;;;;;;;;;;2.00;99.90;;;;;;5035273;28;19917;-80
2020/12/04 04:38:19;;;;;;;14.13;9.20;;;2.10;99.90;;;;;;5033235;28;19917;-79
2020/12/04 04:40:45;;;;;;;12.07;8.50;;;2.20;99.90;;;;;;5033953;28;20049;-79
2020/12/04 04:43:12;;;;;;;13.23;8.68;;;2.30;99.90;;;;;;5032408;28;20037;-79
2020/12/04 04:45:40;;;;;;;13.43;9.43;;;2.30;99.90;;;;;;5034468;28;20040;-79
2020/12/04 04:48:11;;;;;;;8.93;6.72;;;2.30;99.90;;;;;;5032536;28;20041;-79
2020/12/04 04:50:36;;;;;;;;;;;2.40;99.90;;;;;;5035961;28;20060;-79
2020/12/04 04:53:05;;;;;;;10.93;7.75;;;2.40;99.90;;;;;;5036150;28;19924;-79
2020/12/04 04:55:32;;;;;;;;;;;2.40;99.90;;;;;;5036498;28;20063;-80
2020/12/04 04:57:58;;;;;;;;;;;2.60;99.90;;;;;;5053125;28;19921;-80
2020/12/04 05:00:25;;;;;;;9.60;7.38;;;2.60;99.90;;;;;;5052566;28;19968;-79
2020/12/04 05:02:50;;;;;;;;;;;2.50;99.90;;;;;;5036270;28;20054;-79
2020/12/04 05:05:16;;;;;;;;;;;2.50;99.90;;;;;;5036991;28;20391;-80
2020/12/04 05:07:42;;;;;;;12.43;8.90;;;2.50;99.90;;;;;;5022589;28;19924;-80
2020/12/04 05:10:12;;;;;;;12.32;8.52;;;2.40;99.90;;;;;;5035745;28;20065;-80
2020/12/04 05:12:40;;;;;;;;;;;2.40;99.90;;;;;;5037320;28;20489;-79
2020/12/04 05:15:21;;;;;;;;;;;2.60;99.90;;;;;;5053369;28;19928;-79
2020/12/04 05:17:59;;;;;;;;;;;2.50;99.90;;;;;;5052817;28;19916;-79
2020/12/04 05:20:25;;;;;;;15.40;10.65;;;2.50;99.90;;;;;;5052342;28;19948;-79
2020/12/04 05:22:52;;;;;;;;;;;2.40;99.90;;;;;;5054646;28;20041;-79
2020/12/04 05:25:18;;;;;;;;;;;2.50;99.90;;;;;;5056642;28;19952;-79
2020/12/04 05:27:44;;;;;;;;;;;2.40;99.90;;;;;;5054935;28;19917;-79
2020/12/04 05:30:21;;;;;;;;;;;2.40;99.90;;;;;;5056543;28;19921;-79
2020/12/04 05:32:56;;;;;;;;;;;2.40;99.90;;;;;;5039382;28;19917;-79
2020/12/04 05:35:22;;;;;;;;;;;2.30;99.90;;;;;;5045398;28;19924;-79
2020/12/04 05:37:48;;;;;;;;;;;2.30;99.90;;;;;;5041063;28;19917;-79
2020/12/04 05:40:22;;;;;;;;;;;2.20;99.90;;;;;;5055169;28;19963;-79
2020/12/04 05:42:48;;;;;;;;;;;2.20;99.90;;;;;;5054944;28;19921;-79
2020/12/04 05:45:14;;;;;;;;;;;2.10;99.90;;;;;;5049145;28;19948;-79
2020/12/04 05:47:42;;;;;;;18.25;11.95;;;2.10;99.90;;;;;;5052267;28;20368;-79
2020/12/04 05:50:10;;;;;;;17.25;11.10;;;2.10;99.90;;;;;;5037751;28;20041;-79
2020/12/04 05:52:36;;;;;;;;;;;2.00;99.90;;;;;;5036655;28;20038;-79
2020/12/04 05:55:02;;;;;;;;;;;2.00;99.90;;;;;;5055589;28;19920;-79
2020/12/04 05:57:28;;;;;;;;;;;2.00;99.90;;;;;;5055534;28;20389;-79
2020/12/04 05:59:55;;;;;;;;;;;2.00;99.90;;;;;;5057868;28;19964;-79
2020/12/04 06:02:21;;;;;;;15.00;9.93;;;2.00;99.90;;;;;;5051625;28;19939;-79
2020/12/04 06:04:47;;;;;;;15.65;10.68;;;2.10;99.90;;;;;;5037023;28;20411;-79
2020/12/04 06:07:20;;;;;;;12.93;9.43;;;2.10;99.90;;;;;;5034590;28;20045;-79
2020/12/04 06:09:46;;;;;;;;;;;2.10;99.90;;;;;;5036843;28;20080;-79
2020/12/04 06:12:13;;;;;;;13.40;8.63;;;2.20;99.90;;;;;;5053316;28;19924;-79
2020/12/04 06:14:39;;;;;;;;;;;2.20;99.90;;;;;;5052027;28;20030;-79
2020/12/04 06:17:14;;;;;;;;;;;2.20;99.90;;;;;;5051741;28;19924;-79
2020/12/04 06:19:41;;;;;;;;;;;2.20;99.90;;;;;;5036633;28;19952;-79
2020/12/04 06:22:07;;;;;;;;;;;2.30;99.90;;;;;;5051748;28;19917;-79
2020/12/04 06:24:55;;;;;;;;;;;2.20;99.90;;;;;;5036590;28;20365;-79
2020/12/04 06:27:39;;;;;;;;;;;2.10;99.90;;;;;;5036915;28;19921;-79
2020/12/04 06:30:06;;;;;;;12.00;8.05;;;2.20;99.90;;;;;;5031268;28;19972;-79
2020/12/04 06:32:37;;;;;;;15.45;9.75;;;2.30;99.90;;;;;;5039447;28;20037;-79
2020/12/04 06:35:05;;;;;;;16.05;10.43;;;2.30;99.90;;;;;;5056433;28;20046;-79
2020/12/04 06:37:35;;;;;;;;;;;2.20;99.90;;;;;;5041936;28;20064;-79
2020/12/04 06:40:24;;;;;;;21.88;13.00;;;2.00;99.90;;;;;;5041904;28;19916;-80
2020/12/04 06:42:50;;;;;;;;;;;2.00;99.90;;;;;;5038242;28;20113;-80
2020/12/04 06:45:15;;;;;;;;;;;2.40;99.90;;;;;;5029155;28;19925;-80
2020/12/04 06:47:42;;;;;;;;;;;2.20;99.90;;;;;;5040542;28;19917;-79
2020/12/04 06:50:10;;;;;;;;;;;2.00;99.90;;;;;;5051592;28;20403;-80
2020/12/04 06:52:36;;;;;;;;;;;1.90;99.90;;;;;;5055138;28;19921;-79
2020/12/04 06:55:01;;;;;;;;;;;1.90;99.90;;;;;;5052771;28;19923;-80
2020/12/04 06:57:27;;;;;;;;;;;1.80;99.90;;;;;;5053170;28;19925;-80
2020/12/04 06:59:53;;;;;;;;;;;1.80;99.90;;;;;;5054851;28;19917;-80
2020/12/04 07:02:20;;;;;;;16.23;9.48;;;1.60;99.90;;;;;;5056049;28;19917;-79
2020/12/04 07:04:48;;;;;;;11.38;8.25;;;1.80;99.90;;;;;;5054968;28;20099;-79
2020/12/04 07:07:15;;;;;;;9.70;5.97;;;1.90;99.90;;;;;;5053306;28;20493;-79
2020/12/04 07:09:41;;;;;;;;;;;2.00;99.90;;;;;;5029445;28;20049;-79
2020/12/04 07:12:13;;;;;;;;;;;1.80;99.90;;;;;;5026881;28;19917;-80
2020/12/04 07:14:39;;;;;;;;;;;1.90;99.90;;;;;;5051192;28;19983;-80
2020/12/04 07:17:05;;;;;;;;;;;1.90;99.90;;;;;;5032409;28;19920;-80
2020/12/04 07:19:30;;;;;;;;;;;1.80;99.90;;;;;;5049844;28;19917;-79
2020/12/04 07:21:57;;;;;;;;;;;1.70;99.90;;;;;;5035303;28;20003;-80
2020/12/04 07:24:23;;;;;;;;;;;1.70;99.90;;;;;;5023964;28;19921;-80
2020/12/04 07:26:50;;;;;;;;;;;1.70;99.90;;;;;;5045213;28;19917;-79
2020/12/04 07:29:15;;;;;;;;;;;1.70;99.90;;;;;;5045275;28;19944;-79
2020/12/04 07:31:44;;;;;;;;;;;1.70;99.90;;;;;;5033193;28;19917;-79
2020/12/04 07:34:10;;;;;;;9.73;6.10;;;1.70;99.90;;;;;;5037442;28;19917;-79
2020/12/04 07:36:36;;;;;;;;;;;1.80;99.90;;;;;;5051684;28;20041;-80
2020/12/04 07:39:02;;;;;;;;;;;2.00;99.90;;;;;;5052884;28;19917;-80
2020/12/04 07:41:31;;;;;;;;;;;2.00;99.90;;;;;;5021921;28;19921;-79
2020/12/04 07:44:01;;;;;;;;;;;2.00;99.90;;;;;;5024206;28;20019;-80
2020/12/04 07:46:26;;;;;;;;;;;2.10;99.90;;;;;;5051921;28;19917;-79
2020/12/04 07:49:03;;;;;;;;;;;2.30;99.90;;;;;;5050656;28;20288;-80
2020/12/04 07:51:30;;;;;;;;;;;2.30;99.90;;;;;;5024319;28;19972;-79
2020/12/04 07:53:56;;;;;;;;;;;2.40;99.90;;;;;;5024627;28;19956;-80
2020/12/04 07:56:24;;;;;;;;;;;2.20;99.90;;;;;;5036896;28;20021;-80
2020/12/04 07:58:54;;;;;;;;;;;2.10;99.90;;;;;;5019332;28;19921;-80
2020/12/04 08:01:20;;;;;;;;;;;2.00;99.90;;;;;;5021085;28;19951;-80
2020/12/04 08:03:47;;;;;;;;;;;1.90;99.90;;;;;;5040239;28;19964;-80
2020/12/04 08:06:13;;;;;;;;;;;1.90;99.90;;;;;;5036248;28;19929;-79
2020/12/04 08:08:38;;;;;;;;;;;1.90;99.90;;;;;;5035539;28;20403;-79
2020/12/04 08:11:08;;;;;;;;;;;1.90;99.90;;;;;;5020440;28;19917;-79
2020/12/04 08:13:36;;;;;;;;;;;1.80;99.90;;;;;;5053257;28;19917;-79
2020/12/04 08:16:05;;;;;;;;;;;1.70;99.90;;;;;;5035969;28;19929;-79
2020/12/04 08:18:32;;;;;;;;;;;1.80;99.90;;;;;;5043897;28;19956;-80
2020/12/04 08:21:03;;;;;;;;;;;1.70;99.90;;;;;;5050783;28;20254;-80
2020/12/04 08:23:28;;;;;;;;;;;1.70;99.90;;;;;;5050352;28;19921;-80
2020/12/04 08:25:54;;;;;;;;;;;1.70;99.90;;;;;;5037109;28;19917;-80
2020/12/04 08:28:20;;;;;;;;;;;1.80;99.90;;;;;;5055409;28;20369;-80
2020/12/04 08:30:46;;;;;;;;;;;1.80;99.90;;;;;;5055202;28;19920;-80
2020/12/04 08:33:12;;;;;;;;;;;1.80;99.90;;;;;;5054344;28;19925;-79
2020/12/04 08:35:39;;;;;;;;;;;1.80;99.90;;;;;;5053995;28;19967;-80
2020/12/04 08:38:05;;;;;;;;;;;1.90;99.90;;;;;;5055365;28;19917;-80
2020/12/04 08:40:32;;;;;;;;;;;1.90;99.90;;;;;;5036341;28;19921;-80
2020/12/04 08:43:08;;;;;;;;;;;1.90;99.90;;;;;;5025913;28;20336;-79
2020/12/04 08:45:33;;;;;;;;;;;1.80;99.90;;;;;;5038109;28;20262;-80
2020/12/04 08:48:06;;;;;;;;;;;1.90;99.90;;;;;;5053013;28;19924;-80
2020/12/04 08:50:32;;;;;;;;;;;2.00;99.90;;;;;;5040471;28;19955;-80
2020/12/04 08:52:57;;;;;;;;;;;2.10;99.90;;;;;;5052319;28;19917;-79
2020/12/04 08:55:24;;;;;;;;;;;2.20;99.90;;;;;;5050974;28;19963;-80
2020/12/04 08:57:50;;;;;;;;;;;2.10;99.90;;;;;;5042585;28;19917;-80
2020/12/04 09:00:20;;;;;;;;;;;2.10;99.90;;;;;;5056673;28;19921;-79
2020/12/04 09:02:46;;;;;;;;;;;2.00;99.90;;;;;;5041413;28;19974;-79
2020/12/04 09:05:14;;;;;;;;;;;2.00;99.90;;;;;;5040446;28;19921;-79
2020/12/04 09:07:40;;;;;;;;;;;1.90;99.90;;;;;;5035372;28;19925;-80
2020/12/04 09:10:07;;;;;;;;;;;1.90;99.90;;;;;;5025745;28;19921;-80
2020/12/04 09:12:33;;;;;;;;;;;2.10;99.90;;;;;;5044556;28;19917;-80
2020/12/04 09:14:58;;;;;;;;;;;2.20;99.90;;;;;;5025978;28;19924;-80
2020/12/04 09:17:24;;;;;;;;;;;2.30;99.90;;;;;;5032835;28;20289;-80
2020/12/04 09:19:50;;;;;;;;;;;2.30;99.90;;;;;;5034463;28;19929;-80
2020/12/04 09:22:16;;;;;;;;;;;2.30;99.90;;;;;;5025654;28;20012;-80
2020/12/04 09:24:43;;;;;;;;;;;2.40;99.90;;;;;;5052276;28;20273;-80
2020/12/04 09:27:09;;;;;;;;;;;2.40;99.90;;;;;;5052429;28;19964;-80
2020/12/04 09:29:35;;;;;;;;;;;2.40;99.90;;;;;;5051724;28;19924;-80
2020/12/04 09:32:05;;;;;;;;;;;2.30;99.90;;;;;;5034925;28;19924;-80
2020/12/04 09:34:31;;;;;;;;;;;2.30;99.90;;;;;;5035883;28;20004;-80
2020/12/04 09:37:07;;;;;;;;;;;2.30;99.90;;;;;;5051111;28;19944;-80
2020/12/04 09:39:33;;;;;;;;;;;2.40;99.90;;;;;;5035917;28;20312;-80
2020/12/04 09:41:59;;;;;;;;;;;2.50;99.90;;;;;;5038942;28;19921;-80
2020/12/04 09:44:25;;;;;;;;;;;2.40;99.90;;;;;;5031752;28;19924;-80
2020/12/04 09:46:51;;;;;;;;;;;2.50;99.90;;;;;;5046846;28;19929;-80
2020/12/04 09:49:18;;;;;;;;;;;2.60;99.90;;;;;;5052323;28;19921;-79
2020/12/04 09:51:44;;;;;;;;;;;2.60;99.90;;;;;;5052246;28;20285;-79
2020/12/04 09:54:09;;;;;;;;;;;2.50;99.90;;;;;;5051751;28;19917;-80
2020/12/04 09:56:36;;;;;;;;;;;2.60;99.90;;;;;;5036513;28;19917;-80
2020/12/04 09:59:01;;;;;;;;;;;2.50;99.90;;;;;;5048590;28;19992;-80
2020/12/04 10:01:27;;;;;;;;;;;2.60;99.90;;;;;;5035396;28;19917;-80
2020/12/04 10:03:53;;;;;;;;;;;2.60;99.90;;;;;;5050190;28;19929;-80
2020/12/04 10:06:18;;;;;;;;;;;2.60;99.90;;;;;;5034959;28;19917;-80
2020/12/04 10:08:44;;;;;;;;;;;2.60;99.90;;;;;;5032440;28;20411;-79
2020/12/04 10:11:10;;;;;;;;;;;2.80;99.90;;;;;;5034076;28;19917;-80
2020/12/04 10:13:36;;;;;;;;;;;2.90;99.90;;;;;;5021355;28;20356;-80
2020/12/04 10:16:03;;;;;;;;;;;3.00;99.90;;;;;;5030342;28;19925;-80
2020/12/04 10:18:29;;;;;;;;;;;2.90;99.90;;;;;;5051614;28;19917;-80
2020/12/04 10:20:55;;;;;;;;;;;2.90;99.90;;;;;;5033545;28;20323;-79
2020/12/04 10:23:21;;;;;;;;;;;2.90;99.90;;;;;;5052581;28;19921;-79
2020/12/04 10:25:46;;;;;;;;;;;2.80;99.90;;;;;;5034897;28;19975;-80
2020/12/04 10:28:12;;;;;;;;;;;2.70;99.90;;;;;;5055463;28;19988;-80
2020/12/04 10:30:38;;;;;;;;;;;2.60;99.90;;;;;;5037075;28;19921;-80
2020/12/04 10:33:04;;;;;;;;;;;2.60;99.90;;;;;;5050508;28;20423;-80
2020/12/04 10:35:30;;;;;;;;;;;2.70;99.90;;;;;;5035957;28;20365;-80
2020/12/04 10:37:55;;;;;;;;;;;2.70;99.90;;;;;;5035821;28;19973;-79
2020/12/04 10:40:21;;;;;;;;;;;2.60;99.90;;;;;;5036717;28;19960;-79
2020/12/04 10:42:47;;;;;;;;;;;2.60;99.90;;;;;;5031741;28;19949;-79
2020/12/04 10:45:12;;;;;;;;;;;2.60;99.90;;;;;;5035220;28;20015;-79
2020/12/04 10:47:39;;;;;;;;;;;2.60;99.90;;;;;;5045366;28;20416;-79
2020/12/04 10:50:05;;;;;;;;;;;2.70;99.90;;;;;;5054001;28;19921;-79
2020/12/04 10:52:30;;;;;;;;;;;2.70;99.90;;;;;;5038338;28;20360;-79
2020/12/04 10:54:56;;;;;;;;;;;2.70;99.90;;;;;;5052529;28;19921;-79
2020/12/04 10:57:21;;;;;;;;;;;2.70;99.90;;;;;;5051693;28;20253;-80
2020/12/04 10:59:47;;;;;;;;;;;2.80;99.90;;;;;;5041424;28;19917;-80
2020/12/04 11:02:25;;;;;;;;;;;2.80;99.90;;;;;;5050426;28;19917;-79
2020/12/04 11:07:36;;;;;;;;;;;2.90;99.90;;;;;;5036884;28;19928;-79
2020/12/04 11:10:01;;;;;;;;;;;2.80;99.90;;;;;;5031066;28;19917;-79
2020/12/04 11:12:27;;;;;;;;;;;2.90;99.90;;;;;;5052468;28;19960;-80
2020/12/04 11:14:52;;;;;;;;;;;2.90;99.90;;;;;;5053382;28;19964;-79
2020/12/04 11:17:18;;;;;;;;;;;2.90;99.90;;;;;;5050253;28;19925;-80
2020/12/04 11:19:44;;;;;;;;;;;2.80;99.90;;;;;;5036963;28;19923;-80
2020/12/04 11:22:10;;;;;;;;;;;2.80;99.90;;;;;;5035665;28;19917;-79
2020/12/04 11:24:36;;;;;;;;;;;2.80;99.90;;;;;;5040874;28;19928;-79
2020/12/04 11:27:02;;;;;;;;;;;2.90;99.90;;;;;;5051101;28;19917;-79
2020/12/04 11:29:28;;;;;;;;;;;2.90;99.90;;;;;;5051745;28;19924;-79
2020/12/04 11:31:53;;;;;;;;;;;2.90;99.90;;;;;;5052248;28;20307;-79
2020/12/04 11:34:19;;;;;;;;;;;3.00;99.90;;;;;;5052612;28;19924;-81
2020/12/04 11:36:45;;;;;;;;;;;2.90;99.90;;;;;;5049681;28;20300;-79
2020/12/04 11:39:12;;;;;;;;;;;2.90;99.90;;;;;;5044340;28;20008;-79
2020/12/04 11:41:37;;;;;;;;;;;2.90;99.90;;;;;;5046706;28;19921;-79
2020/12/04 11:44:03;;;;;;;;;;;2.90;99.90;;;;;;5033830;28;19929;-79
2020/12/04 11:46:29;;;;;;;;;;;2.90;99.90;;;;;;5050806;28;19917;-79
2020/12/04 11:48:54;;;;;;;;;;;2.90;99.90;;;;;;5030946;28;19983;-79
2020/12/04 11:51:20;;;;;;;;;;;2.90;99.90;;;;;;5013651;28;19941;-79
2020/12/04 11:53:46;;;;;;;;;;;2.90;99.90;;;;;;5030976;28;19971;-79
2020/12/04 11:56:12;;;;;;;;;;;2.90;99.90;;;;;;5051019;28;19917;-79
2020/12/04 11:58:38;;;;;;;;;;;2.90;99.90;;;;;;5049878;28;19928;-79
2020/12/04 12:01:03;;;;;;;;;;;2.90;99.90;;;;;;5030222;28;19917;-79
2020/12/04 12:03:29;;;;;;;;;;;2.90;99.90;;;;;;5031270;28;19967;-78
2020/12/04 12:05:55;;;;;;;;;;;2.90;99.90;;;;;;5034477;28;19952;-79
2020/12/04 12:08:20;;;;;;;;;;;2.90;99.90;;;;;;5048224;28;20393;-79
2020/12/04 12:10:46;;;;;;;;;;;2.90;99.90;;;;;;5030716;28;20403;-79
2020/12/04 12:13:12;;;;;;;;;;;2.90;99.90;;;;;;5025692;28;19917;-79
2020/12/04 12:15:38;;;;;;;;;;;3.00;99.90;;;;;;5032607;28;19927;-79
2020/12/04 12:18:04;;;;;;;;;;;2.90;99.90;;;;;;5050068;28;19921;-79
2020/12/04 12:20:29;;;;;;;;;;;3.00;99.90;;;;;;5050573;28;19924;-79
2020/12/04 12:22:55;;;;;;;;;;;3.00;99.90;;;;;;5034362;28;19923;-80
2020/12/04 12:25:21;;;;;;;;;;;3.10;99.90;;;;;;5049387;28;19924;-79
2020/12/04 12:27:47;;;;;;;;;;;3.10;99.90;;;;;;5028923;28;20388;-80
2020/12/04 12:30:13;;;;;;;;;;;3.00;99.90;;;;;;5042844;28;19917;-80
2020/12/04 12:32:39;;;;;;;;;;;3.00;99.90;;;;;;5030841;28;20313;-79
2020/12/04 12:35:11;;;;;;;;;;;3.10;99.90;;;;;;5047669;28;19924;-79
2020/12/04 12:37:37;;;;;;;;;;;3.10;99.90;;;;;;5033425;28;19927;-80
2020/12/04 12:40:03;;;;;;;;;;;3.10;99.90;;;;;;5034488;28;20019;-80
2020/12/04 12:42:29;;;;;;;;;;;3.10;99.90;;;;;;5049894;28;19967;-80
2020/12/04 12:44:55;;;;;;;;;;;3.10;99.90;;;;;;5050650;28;20376;-80
2020/12/04 12:47:21;;;;;;;;;;;3.20;99.90;;;;;;5049051;28;19921;-80
2020/12/04 12:49:47;;;;;;;;;;;3.10;99.90;;;;;;5050737;28;19925;-79
2020/12/04 12:52:13;;;;;;;;;;;3.10;99.90;;;;;;5049809;28;19917;-80
2020/12/04 12:54:39;;;;;;;;;;;3.00;99.90;;;;;;5050705;28;20394;-79
2020/12/04 12:57:05;;;;;;;;;;;2.80;99.90;;;;;;5049502;28;20012;-80
2020/12/04 12:59:32;;;;;;;;;;;2.80;99.90;;;;;;5050896;28;20043;-80
2020/12/04 13:01:57;;;;;;;;;;;2.80;99.90;;;;;;5031315;28;20261;-80
2020/12/04 13:04:24;;;;;;;;;;;2.80;99.90;;;;;;5032412;28;19921;-79
2020/12/04 13:06:51;;;;;;;;;;;2.90;99.90;;;;;;5022276;28;19927;-80
2020/12/04 13:09:16;;;;;;;;;;;2.80;99.90;;;;;;5034686;28;19959;-79
2020/12/04 13:11:42;;;;;;;;;;;2.80;99.90;;;;;;5052015;28;20372;-80
2020/12/04 13:14:08;;;;;;;;;;;2.80;99.90;;;;;;5052512;28;19921;-80
2020/12/04 13:16:34;;;;;;;;;;;2.70;99.90;;;;;;5052384;28;19932;-80
2020/12/04 13:18:59;;;;;;;;;;;2.70;99.90;;;;;;5037231;28;20007;-80
2020/12/04 13:21:54;;;;;;;;;;;2.80;99.90;;;;;;5052531;28;19917;-80
2020/12/04 13:24:11;;;;;;;;;;;2.80;99.90;;;;;;5036282;28;19920;-80
2020/12/04 13:26:38;;;;;;;;;;;2.80;99.90;;;;;;5035113;28;19971;-80
2020/12/04 13:29:03;;;;;;;;;;;2.70;99.90;;;;;;5052254;28;20270;-80
2020/12/04 13:31:29;;;;;;;;;;;2.70;99.90;;;;;;5048458;28;19924;-79
2020/12/04 13:33:55;;;;;;;;;;;2.70;99.90;;;;;;5025026;28;19916;-80
2020/12/04 13:36:20;;;;;;;;;;;2.70;99.90;;;;;;5035958;28;19917;-80
2020/12/04 13:38:47;;;;;;;;;;;2.80;99.90;;;;;;5034747;28;19925;-80
2020/12/04 13:41:13;;;;;;;;;;;2.70;99.90;;;;;;5052574;28;19921;-79
2020/12/04 13:43:38;;;;;;;;;;;2.70;99.90;;;;;;5049941;28;19987;-80
2020/12/04 13:46:05;;;;;;;;;;;2.70;99.90;;;;;;5052477;28;20000;-80
2020/12/04 13:48:31;;;;;;;;;;;2.60;99.90;;;;;;5052339;28;19917;-79
2020/12/04 13:50:56;;;;;;;;;;;2.70;99.90;;;;;;5035767;28;19935;-79
2020/12/04 13:53:22;;;;;;;;;;;2.60;99.90;;;;;;5035581;28;20011;-79
2020/12/04 13:55:49;;;;;;;;;;;2.60;99.90;;;;;;5035799;28;20403;-80
2020/12/04 13:58:14;;;;;;;;;;;2.50;99.90;;;;;;5052075;28;19921;-80
2020/12/04 14:00:40;;;;;;;;;;;2.70;99.90;;;;;;5052010;28;19975;-79
2020/12/04 14:03:06;;;;;;;;;;;2.70;99.90;;;;;;5033935;28;19927;-80
2020/12/04 14:05:32;;;;;;;;;;;2.60;99.90;;;;;;5030029;28;19921;-80
2020/12/04 14:07:57;;;;;;;;;;;2.50;99.90;;;;;;5051686;28;19916;-80
2020/12/04 14:10:23;;;;;;;;;;;2.50;99.90;;;;;;5034847;28;19921;-80
2020/12/04 14:12:50;;;;;;;;;;;2.60;99.90;;;;;;5034498;28;19917;-80
2020/12/04 14:15:15;;;;;;;;;;;2.60;99.90;;;;;;5031257;28;19921;-80
2020/12/04 14:17:41;;;;;;;;;;;2.60;99.90;;;;;;5032814;28;19917;-79
2020/12/04 14:20:07;;;;;;;;;;;2.70;99.90;;;;;;5035030;28;20026;-79